Time;durP1;ratioP1;P1;durP2;ratioP2;P2;SDS_P1;SDS_P2;PMS_P1;PMS_P2;Temp;Humidity;BMP_temperature;BMP_pressure;BME280_temperature;BME280_humidity;BME280_pressure;Samples;Min_cycle;Max_cycle;Signal;HPM_P1;HPM_P2
2021/09/16 00:00:12;;;;;;;;;;;;;;;24.53;55.28;101215.75;4898255;29;19955;-65
2021/09/16 00:02:39;;;;;;;;;;;;;;;24.57;54.88;101201.00;4900292;29;19923;-66
2021/09/16 00:05:06;;;;;;;;;;;;;;;24.59;55.20;101203.50;4898232;29;19970;-60
2021/09/16 00:07:32;;;;;;;;;;;;;;;24.59;55.01;101192.78;4914904;29;19926;-59
2021/09/16 00:09:59;;;;;;;;;;;;;;;24.61;54.68;101186.22;4916738;29;19971;-66
2021/09/16 00:12:26;;;;;;;;;;;;;;;24.64;54.95;101189.59;4917035;29;20386;-66
2021/09/16 00:14:52;;;;;;;;;;;;;;;24.66;54.64;101198.31;4917065;29;19927;-65
2021/09/16 00:17:19;;;;;;;;;;;;;;;24.65;54.56;101188.63;4917061;29;20359;-66
2021/09/16 00:19:46;;;;;;;;;;;;;;;24.68;54.62;101191.78;4915246;29;20295;-63
2021/09/16 00:22:12;;;;;;;;;;;;;;;24.67;54.65;101190.13;4898201;29;19927;-60
2021/09/16 00:24:39;;;;;;;;;;;;;;;24.68;54.65;101191.78;4898039;29;19923;-60
2021/09/16 00:27:05;;;;;;;;;;;;;;;24.67;54.75;101200.00;4897963;29;19923;-61
2021/09/16 00:29:32;;;;;;;;;;;;;;;24.66;54.76;101195.63;4897920;29;20392;-60
2021/09/16 00:31:59;;;;;;;;;;;;;;;24.66;54.59;101187.59;4897820;29;19971;-59
2021/09/16 00:34:25;;;;;;;;;;;;;;;24.62;54.89;101184.41;4897830;29;20372;-60
2021/09/16 00:36:51;;;;;;;;;;;;;;;24.62;54.64;101187.09;4897905;29;20269;-66
2021/09/16 00:39:18;;;;;;;;;;;;;;;24.59;54.58;101179.34;4897704;29;20432;-60
2021/09/16 00:41:44;;;;;;;;;;;;;;;24.56;54.71;101171.66;4897760;29;19951;-59
2021/09/16 00:44:11;;;;;;;;;;;;;;;24.57;54.80;101174.16;4897221;29;20349;-66
2021/09/16 00:46:37;;;;;;;;;;;;;;;24.58;54.84;101177.66;4897821;29;20167;-66
2021/09/16 00:49:05;;;;;;;;;;;;;;;24.55;54.71;101181.53;4897591;29;19927;-66
2021/09/16 00:51:31;;;;;;;;;;;;;;;24.57;54.76;101181.34;4897727;29;19995;-64
2021/09/16 00:53:59;;;;;;;;;;;;;;;24.55;54.62;101188.75;4897687;29;19923;-60
2021/09/16 00:56:25;;;;;;;;;;;;;;;24.54;54.60;101185.22;4897756;29;19975;-64
2021/09/16 00:58:53;;;;;;;;;;;;;;;24.54;54.80;101189.75;4896839;29;19994;-60
2021/09/16 01:01:19;;;;;;;;;;;;;;;24.47;54.71;101194.97;4897791;29;19923;-61
2021/09/16 01:03:46;;;;;;;;;;;;;;;24.42;54.73;101202.69;4897664;29;19931;-65
2021/09/16 01:06:13;;;;;;;;;;;;;;;24.43;55.00;101205.19;4897664;29;20368;-66
2021/09/16 01:08:39;;;;;;;;;;;;;;;24.33;55.06;101204.50;4897518;29;19924;-64
2021/09/16 01:11:06;;;;;;;;;;;;;;;24.28;55.36;101206.84;4897502;29;19927;-60
2021/09/16 01:13:32;;;;;;;;;;;;;;;24.29;55.08;101201.31;4897536;29;19962;-66
2021/09/16 01:15:59;;;;;;;;;;;;;;;24.29;55.38;101209.38;4897543;29;19924;-66
2021/09/16 01:18:26;;;;;;;;;;;;;;;24.29;55.21;101206.69;4897552;29;19923;-60
2021/09/16 01:20:54;;;;;;;;;;;;;;;24.28;55.31;101202.31;4897364;29;19931;-66
2021/09/16 01:23:24;;;;;;;;;;;;;;;24.26;55.42;101195.44;4897499;29;19923;-65
2021/09/16 01:25:50;;;;;;;;;;;;;;;24.26;55.56;101195.44;4897394;29;19971;-66
2021/09/16 01:28:16;;;;;;;;;;;;;;;24.23;55.28;101185.06;4897337;29;19924;-60
2021/09/16 01:30:44;;;;;;;;;;;;;;;24.22;55.50;101176.16;4897266;29;19923;-66
2021/09/16 01:33:10;;;;;;;;;;;;;;;24.21;55.54;101179.84;4899826;29;19923;-60
2021/09/16 01:35:37;;;;;;;;;;;;;;;24.21;55.42;101168.28;4897514;29;19923;-66
2021/09/16 01:38:03;;;;;;;;;;;;;;;24.20;55.51;101159.41;4897456;29;19978;-66
2021/09/16 01:40:30;;;;;;;;;;;;;;;24.19;55.46;101140.78;4897265;29;19931;-66
2021/09/16 01:42:56;;;;;;;;;;;;;;;24.17;55.34;101140.97;4897269;29;20432;-63
2021/09/16 01:45:24;;;;;;;;;;;;;;;24.16;55.40;101133.91;4898748;29;19923;-66
2021/09/16 01:47:51;;;;;;;;;;;;;;;24.16;55.27;101135.78;4916125;29;19926;-60
2021/09/16 01:50:18;;;;;;;;;;;;;;;24.11;55.85;101137.13;4915990;29;19947;-66
2021/09/16 01:52:45;;;;;;;;;;;;;;;24.10;55.54;101145.34;4916216;29;20171;-66
2021/09/16 01:55:12;;;;;;;;;;;;;;;24.07;55.72;101153.69;4918331;29;19926;-66
2021/09/16 01:57:39;;;;;;;;;;;;;;;24.03;55.91;101160.41;4919394;29;19949;-63
2021/09/16 02:00:07;;;;;;;;;;;;;;;23.88;56.29;101174.41;4919224;29;19955;-63
2021/09/16 02:02:33;;;;;;;;;;;;;;;23.84;56.46;101169.53;4919401;29;19923;-64
2021/09/16 02:05:00;;;;;;;;;;;;;;;23.86;56.14;101179.09;4919155;29;19923;-65
2021/09/16 02:07:27;;;;;;;;;;;;;;;23.88;56.48;101185.13;4919159;29;19923;-60
2021/09/16 02:09:54;;;;;;;;;;;;;;;23.87;56.19;101180.78;4919008;29;20376;-61
2021/09/16 02:12:20;;;;;;;;;;;;;;;23.85;56.17;101153.28;4919242;29;19927;-60
2021/09/16 02:14:47;;;;;;;;;;;;;;;23.88;56.04;101155.63;4916671;29;19937;-67
2021/09/16 02:17:13;;;;;;;;;;;;;;;23.80;56.23;101158.31;4900225;29;19924;-67
2021/09/16 02:19:40;;;;;;;;;;;;;;;23.77;56.29;101155.97;4900160;29;20372;-64
2021/09/16 02:22:06;;;;;;;;;;;;;;;23.71;56.18;101154.78;4899967;29;19994;-59
2021/09/16 02:24:33;;;;;;;;;;;;;;;23.77;56.13;101145.25;4900202;29;20397;-62
2021/09/16 02:26:59;;;;;;;;;;;;;;;23.83;56.04;101157.16;4900112;29;19927;-66
2021/09/16 02:29:26;;;;;;;;;;;;;;;23.73;56.33;101154.59;4900014;29;19983;-60
2021/09/16 02:31:52;;;;;;;;;;;;;;;23.63;56.46;101157.44;4899955;29;19929;-67
2021/09/16 02:34:19;;;;;;;;;;;;;;;23.59;56.57;101156.91;4899794;29;19923;-60
2021/09/16 02:36:45;;;;;;;;;;;;;;;23.63;56.43;101160.94;4899942;29;20143;-61
2021/09/16 02:39:11;;;;;;;;;;;;;;;23.69;56.13;101139.84;4899873;29;19979;-67
2021/09/16 02:41:38;;;;;;;;;;;;;;;23.65;56.31;101133.97;4899627;29;19955;-62
2021/09/16 02:44:04;;;;;;;;;;;;;;;23.66;56.17;101137.50;4899792;29;19931;-66
2021/09/16 02:46:31;;;;;;;;;;;;;;;23.70;56.16;101133.50;4902200;29;19979;-65
2021/09/16 02:48:57;;;;;;;;;;;;;;;23.69;55.99;101126.47;4899651;29;19940;-60
2021/09/16 02:51:24;;;;;;;;;;;;;;;23.69;56.26;101123.78;4899506;29;19923;-67
2021/09/16 02:53:50;;;;;;;;;;;;;;;23.66;56.20;101129.47;4899592;29;19927;-61
2021/09/16 02:56:17;;;;;;;;;;;;;;;23.65;56.42;101136.66;4899462;29;20340;-65
2021/09/16 02:58:43;;;;;;;;;;;;;;;23.70;56.37;101141.53;4900775;29;19923;-60
2021/09/16 03:01:10;;;;;;;;;;;;;;;23.71;56.36;101144.03;4918339;29;19923;-67
2021/09/16 03:03:36;;;;;;;;;;;;;;;23.63;56.41;101144.88;4904167;29;19959;-59
2021/09/16 03:06:03;;;;;;;;;;;;;;;23.63;56.28;101142.19;4895014;29;19930;-65
2021/09/16 03:08:29;;;;;;;;;;;;;;;23.62;56.34;101143.19;4895675;29;19927;-64
2021/09/16 03:10:56;;;;;;;;;;;;;;;23.63;56.58;101134.16;4896056;29;19983;-60
2021/09/16 03:13:22;;;;;;;;;;;;;;;23.64;56.46;101129.63;4896388;29;19990;-60
2021/09/16 03:15:49;;;;;;;;;;;;;;;23.66;56.80;101126.81;4895792;29;20320;-60
2021/09/16 03:18:16;;;;;;;;;;;;;;;23.66;56.81;101130.31;4896228;29;20344;-60
2021/09/16 03:20:42;;;;;;;;;;;;;;;23.66;56.70;101127.63;4895652;29;19946;-60
2021/09/16 03:23:08;;;;;;;;;;;;;;;23.68;56.62;101133.66;4895889;29;19927;-66
2021/09/16 03:25:35;;;;;;;;;;;;;;;23.69;56.73;101121.09;4895980;29;19931;-66
2021/09/16 03:28:01;;;;;;;;;;;;;;;23.69;56.65;101129.97;4895776;29;19927;-60
2021/09/16 03:30:28;;;;;;;;;;;;;;;23.68;56.73;101128.31;4895901;29;20376;-64
2021/09/16 03:32:56;;;;;;;;;;;;;;;23.66;56.68;101135.66;4895502;29;19952;-60
2021/09/16 03:35:23;;;;;;;;;;;;;;;23.64;56.60;101146.56;4895530;29;19971;-60
2021/09/16 03:37:49;;;;;;;;;;;;;;;23.58;57.29;101147.19;4895623;29;19967;-59
2021/09/16 03:40:16;;;;;;;;;;;;;;;23.55;57.21;101158.22;4895359;29;19979;-60
2021/09/16 03:42:43;;;;;;;;;;;;;;;23.58;56.93;101163.28;4895378;29;19924;-60
2021/09/16 03:45:10;;;;;;;;;;;;;;;23.56;57.27;101156.41;4896077;29;19997;-67
2021/09/16 03:47:37;;;;;;;;;;;;;;;23.55;57.34;101160.06;4895704;29;19923;-60
2021/09/16 03:50:04;;;;;;;;;;;;;;;23.55;57.33;101158.22;4906272;29;19995;-60
2021/09/16 03:52:30;;;;;;;;;;;;;;;23.55;57.67;101163.59;4895215;29;19924;-59
2021/09/16 03:54:56;;;;;;;;;;;;;;;23.52;57.66;101171.94;4895196;29;19923;-60
2021/09/16 03:57:23;;;;;;;;;;;;;;;23.47;57.86;101176.97;4895372;29;19973;-60
2021/09/16 03:59:49;;;;;;;;;;;;;;;23.42;57.95;101173.94;4895291;29;19966;-67
2021/09/16 04:02:16;;;;;;;;;;;;;;;23.40;58.21;101163.38;4908407;29;19978;-60
2021/09/16 04:04:42;;;;;;;;;;;;;;;23.41;58.34;101165.03;4904055;29;19923;-60
2021/09/16 04:07:09;;;;;;;;;;;;;;;23.40;58.28;101159.84;4895074;29;19927;-60
2021/09/16 04:09:35;;;;;;;;;;;;;;;23.38;58.32;101164.53;4896908;29;19983;-66
2021/09/16 04:12:02;;;;;;;;;;;;;;;23.40;58.23;101160.69;4894724;29;20410;-66
2021/09/16 04:14:28;;;;;;;;;;;;;;;23.40;58.28;101170.56;4894865;29;19990;-64
2021/09/16 04:16:55;;;;;;;;;;;;;;;23.43;58.34;101162.22;4894905;29;20380;-60
2021/09/16 04:19:21;;;;;;;;;;;;;;;23.42;58.39;101163.22;4897568;29;19972;-59
2021/09/16 04:21:48;;;;;;;;;;;;;;;23.44;58.07;101163.91;4913591;29;19978;-64
2021/09/16 04:24:16;;;;;;;;;;;;;;;23.45;58.32;101153.03;4896366;29;19927;-60
2021/09/16 04:26:44;;;;;;;;;;;;;;;23.47;58.00;101153.69;4894927;29;19930;-60
2021/09/16 04:29:11;;;;;;;;;;;;;;;23.47;58.21;101155.53;4894652;29;19931;-65
2021/09/16 04:31:38;;;;;;;;;;;;;;;23.47;58.04;101155.53;4894651;29;19979;-60
2021/09/16 04:34:05;;;;;;;;;;;;;;;23.47;58.04;101145.66;4894519;29;19931;-60
2021/09/16 04:36:32;;;;;;;;;;;;;;;23.47;58.07;101142.97;4894702;29;19979;-60
2021/09/16 04:38:58;;;;;;;;;;;;;;;23.46;58.33;101143.13;4908909;29;20383;-59
2021/09/16 04:41:25;;;;;;;;;;;;;;;23.45;57.94;101131.59;4894512;29;20439;-60
2021/09/16 04:43:51;;;;;;;;;;;;;;;23.43;57.98;101124.72;4894761;29;19930;-65
2021/09/16 04:46:17;;;;;;;;;;;;;;;23.41;58.09;101107.97;4894587;29;19927;-60
2021/09/16 04:48:44;;;;;;;;;;;;;;;23.38;58.08;101100.28;4894370;29;19995;-60
2021/09/16 04:51:10;;;;;;;;;;;;;;;23.35;58.30;101088.03;4899314;29;19927;-60
2021/09/16 04:53:37;;;;;;;;;;;;;;;23.33;58.20;101095.38;4912446;29;19923;-60
2021/09/16 04:56:03;;;;;;;;;;;;;;;23.30;58.48;101107.25;4911532;29;20339;-67
2021/09/16 04:58:30;;;;;;;;;;;;;;;23.31;58.38;101103.59;4910685;29;19959;-62
2021/09/16 05:00:56;;;;;;;;;;;;;;;23.32;58.09;101088.34;4912815;29;19923;-62
2021/09/16 05:03:23;;;;;;;;;;;;;;;23.33;58.22;101089.22;4913250;29;19930;-62
2021/09/16 05:05:50;;;;;;;;;;;;;;;23.32;58.16;101093.72;4913120;29;19979;-61
2021/09/16 05:08:16;;;;;;;;;;;;;;;23.32;58.06;101104.41;4913444;29;19975;-62
2021/09/16 05:10:43;;;;;;;;;;;;;;;23.34;58.10;101113.13;4913350;29;19923;-61
2021/09/16 05:13:09;;;;;;;;;;;;;;;23.33;58.11;101124.84;4913192;29;20348;-63
2021/09/16 05:15:36;;;;;;;;;;;;;;;23.41;57.80;101124.84;4912981;29;19958;-61
2021/09/16 05:18:07;;;;;;;;;;;;;;;23.37;57.64;101128.88;4912472;29;20344;-65
2021/09/16 05:20:36;;;;;;;;;;;;;;;23.34;57.66;101128.34;4912649;29;20041;-60
2021/09/16 05:23:02;;;;;;;;;;;;;;;23.35;57.87;101135.38;4912671;29;19927;-64
2021/09/16 05:25:29;;;;;;;;;;;;;;;23.34;57.94;101139.91;4912619;29;19923;-65
2021/09/16 05:27:55;;;;;;;;;;;;;;;23.35;57.72;101138.06;4912901;29;19955;-63
2021/09/16 05:30:22;;;;;;;;;;;;;;;23.35;57.85;101138.94;4915535;29;19989;-65
2021/09/16 05:32:49;;;;;;;;;;;;;;;23.36;57.90;101143.25;4916407;29;19923;-65
2021/09/16 05:35:15;;;;;;;;;;;;;;;23.35;58.15;101144.28;4916455;29;19923;-63
2021/09/16 05:37:42;;;;;;;;;;;;;;;23.38;58.20;101153.84;4916069;29;19959;-64
2021/09/16 05:40:10;;;;;;;;;;;;;;;23.37;58.23;101155.66;4916120;29;19923;-62
2021/09/16 05:42:37;;;;;;;;;;;;;;;23.39;58.55;101153.66;4915874;29;19975;-63
2021/09/16 05:45:07;;;;;;;;;;;;;;;23.36;58.62;101159.31;4915940;29;20364;-65
2021/09/16 05:47:34;;;;;;;;;;;;;;;23.38;58.50;101159.19;4916169;29;19930;-67
2021/09/16 05:50:01;;;;;;;;;;;;;;;23.38;58.59;101157.34;4916033;29;20017;-62
2021/09/16 05:52:27;;;;;;;;;;;;;;;23.62;58.70;101153.91;4916124;29;19930;-63
2021/09/16 05:54:54;;;;;;;;;;;;;;;23.55;58.73;101163.59;4915518;29;19923;-63
2021/09/16 05:57:21;;;;;;;;;;;;;;;23.49;59.05;101161.56;4914585;29;19927;-64
2021/09/16 05:59:47;;;;;;;;;;;;;;;23.47;59.09;101168.91;4915835;29;19970;-63
2021/09/16 06:02:14;;;;;;;;;;;;;;;23.46;59.31;101180.63;4916161;29;20073;-63
2021/09/16 06:04:40;;;;;;;;;;;;;;;23.43;59.34;101179.13;4916350;29;19981;-64
2021/09/16 06:07:07;;;;;;;;;;;;;;;23.42;59.62;101169.41;4915912;29;20253;-63
2021/09/16 06:09:34;;;;;;;;;;;;;;;23.43;59.83;101171.06;4915500;29;20583;-63
2021/09/16 06:12:03;;;;;;;;;;;;;;;23.45;59.78;101169.09;4915854;29;19929;-63
2021/09/16 06:14:33;;;;;;;;;;;;;;;23.48;59.85;101175.97;4915592;29;19923;-63
2021/09/16 06:17:00;;;;;;;;;;;;;;;23.48;59.92;101173.28;4915018;29;20006;-63
2021/09/16 06:19:27;;;;;;;;;;;;;;;23.50;60.10;101178.47;4915006;29;19970;-62
2021/09/16 06:21:54;;;;;;;;;;;;;;;23.52;59.93;101177.31;4915015;29;19927;-63
2021/09/16 06:24:20;;;;;;;;;;;;;;;23.56;60.29;101178.66;4915309;29;19927;-64
2021/09/16 06:26:47;;;;;;;;;;;;;;;23.59;60.28;101169.47;4915395;29;20332;-63
2021/09/16 06:29:13;;;;;;;;;;;;;;;23.62;60.55;101169.97;4915190;29;19933;-63
2021/09/16 06:31:40;;;;;;;;;;;;;;;23.62;60.59;101169.97;4915251;29;19981;-63
2021/09/16 06:34:07;;;;;;;;;;;;;;;23.60;60.82;101172.00;4915005;29;19927;-62
2021/09/16 06:36:33;;;;;;;;;;;;;;;23.60;60.68;101174.69;4915026;29;19982;-65
2021/09/16 06:39:00;;;;;;;;;;;;;;;23.61;60.92;101175.50;4914945;29;19930;-63
2021/09/16 06:41:26;;;;;;;;;;;;;;;23.62;60.73;101169.97;4914334;29;20691;-63
2021/09/16 06:43:53;;;;;;;;;;;;;;;23.60;61.38;101176.50;4902199;29;19934;-64
2021/09/16 06:46:20;;;;;;;;;;;;;;;23.57;61.28;101169.63;4907015;29;19971;-63
2021/09/16 06:48:48;;;;;;;;;;;;;;;23.53;61.57;101165.59;4896712;29;19923;-65
2021/09/16 06:51:20;;;;;;;;;;;;;;;23.53;61.87;101165.59;4906817;29;19949;-66
2021/09/16 06:53:59;;;;;;;;;;;;;;;23.53;61.66;101167.41;4896387;29;19937;-63
2021/09/16 06:56:27;;;;;;;;;;;;;;;23.54;61.81;101169.97;4906416;29;19934;-65
2021/09/16 06:58:55;;;;;;;;;;;;;;;23.58;62.06;101170.44;4914180;29;19930;-63
2021/09/16 07:01:23;;;;;;;;;;;;;;;23.63;62.05;101176.19;4914108;29;20431;-63
2021/09/16 07:03:52;;;;;;;;;;;;;;;23.67;61.81;101182.91;4914157;29;19923;-65
2021/09/16 07:06:33;;;;;;;;;;;;;;;23.71;62.15;101170.03;4903758;29;20112;-64
2021/09/16 07:08:59;;;;;;;;;;;;;;;23.72;61.83;101175.22;4913998;29;19923;-66
2021/09/16 07:11:26;;;;;;;;;;;;;;;23.70;62.44;101189.78;4913310;29;20462;-64
2021/09/16 07:13:52;;;;;;;;;;;;;;;23.70;62.55;101195.97;4912930;29;19966;-63
2021/09/16 07:16:19;;;;;;;;;;;;;;;23.72;62.54;101202.00;4907914;29;19963;-63
2021/09/16 07:18:45;;;;;;;;;;;;;;;23.75;62.51;101212.38;4908192;29;19923;-63
2021/09/16 07:21:12;;;;;;;;;;;;;;;23.74;62.66;101220.59;4898194;29;19923;-63
2021/09/16 07:23:39;;;;;;;;;;;;;;;23.76;62.80;101230.16;4913868;29;19931;-64
2021/09/16 07:26:21;;;;;;;;;;;;;;;23.76;62.48;101237.38;4914368;29;20041;-63
2021/09/16 07:28:47;;;;;;;;;;;;;;;23.73;62.66;101237.66;4913996;29;19923;-63
2021/09/16 07:31:14;;;;;;;;;;;;;;;23.74;62.57;101239.34;4914047;29;19951;-63
2021/09/16 07:33:41;;;;;;;;;;;;;;;23.73;62.46;101240.34;4913591;29;20030;-63
2021/09/16 07:36:07;;;;;;;;;;;;;;;23.73;62.81;101241.19;4914422;29;19927;-63
2021/09/16 07:38:34;;;;;;;;;;;;;;;23.76;62.95;101242.72;4909569;29;19930;-64
2021/09/16 07:41:01;;;;;;;;;;;;;;;23.71;62.71;101247.72;4912188;29;19994;-62
2021/09/16 07:43:27;;;;;;;;;;;;;;;23.70;62.72;101246.03;4911752;29;19982;-62
2021/09/16 07:45:54;;;;;;;;;;;;;;;23.67;62.96;101244.53;4913352;29;19955;-65
2021/09/16 07:48:21;;;;;;;;;;;;;;;23.68;63.02;101250.72;4895180;29;20336;-63
2021/09/16 07:50:48;;;;;;;;;;;;;;;23.68;62.93;101242.66;4894723;29;19955;-65
2021/09/16 07:53:14;;;;;;;;;;;;;;;23.70;62.78;101246.03;4894112;29;19943;-63
2021/09/16 07:55:41;;;;;;;;;;;;;;;23.68;63.05;101253.38;4894604;29;19948;-63
2021/09/16 07:58:07;;;;;;;;;;;;;;;23.64;63.42;101255.53;4894688;29;19979;-64
2021/09/16 08:00:34;;;;;;;;;;;;;;;23.66;63.37;101247.38;4913821;29;19962;-63
2021/09/16 08:03:00;;;;;;;;;;;;;;;23.67;63.43;101247.22;4913485;29;19923;-64
2021/09/16 08:05:28;;;;;;;;;;;;;;;23.69;63.35;101244.34;4913650;29;19927;-63
2021/09/16 08:07:54;;;;;;;;;;;;;;;23.70;63.63;101246.03;4913564;29;19931;-64
2021/09/16 08:10:22;;;;;;;;;;;;;;;23.71;63.55;101245.06;4913068;29;20502;-64
2021/09/16 08:12:50;;;;;;;;;;;;;;;23.71;63.79;101251.22;4912821;29;19923;-63
2021/09/16 08:15:17;;;;;;;;;;;;;;;23.71;63.90;101253.91;4912967;29;19974;-63
2021/09/16 08:17:44;;;;;;;;;;;;;;;23.69;64.26;101252.41;4913304;29;19994;-63
2021/09/16 08:20:11;;;;;;;;;;;;;;;23.68;64.01;101248.03;4913430;29;20018;-64
2021/09/16 08:22:38;;;;;;;;;;;;;;;23.68;64.30;101254.25;4913224;29;19982;-63
2021/09/16 08:25:05;;;;;;;;;;;;;;;23.64;64.60;101253.72;4913126;29;19931;-64
2021/09/16 08:27:33;;;;;;;;;;;;;;;23.65;64.67;101257.22;4913388;29;20390;-63
2021/09/16 08:30:00;;;;;;;;;;;;;;;23.64;64.69;101274.31;4912950;29;19927;-63
2021/09/16 08:32:26;;;;;;;;;;;;;;;23.65;64.74;101286.72;4913115;29;20406;-63
2021/09/16 08:34:53;;;;;;;;;;;;;;;23.66;64.89;101292.94;4912650;29;19922;-63
2021/09/16 08:37:19;;;;;;;;;;;;;;;23.68;64.55;101291.75;4913050;29;19977;-62
2021/09/16 08:39:46;;;;;;;;;;;;;;;23.69;64.93;101297.94;4909477;29;20264;-62
2021/09/16 08:42:13;;;;;;;;;;;;;;;23.70;65.13;101297.78;4903005;29;19927;-63
2021/09/16 08:44:41;;;;;;;;;;;;;;;23.75;65.12;101302.66;4908538;29;20269;-63
2021/09/16 08:47:08;;;;;;;;;;;;;;;23.77;65.18;101298.84;4913136;29;19923;-63
2021/09/16 08:49:34;;;;;;;;;;;;;;;23.78;65.43;101300.53;4912729;29;19927;-62
2021/09/16 08:52:01;;;;;;;;;;;;;;;23.80;65.16;101301.19;4912723;29;19942;-63
2021/09/16 08:54:29;;;;;;;;;;;;;;;23.81;65.74;101302.88;4912710;29;19923;-62
2021/09/16 08:56:56;;;;;;;;;;;;;;;23.81;65.63;101312.75;4912961;29;19931;-63
2021/09/16 08:59:23;;;;;;;;;;;;;;;23.81;65.61;101296.69;4895442;29;20289;-63
2021/09/16 09:01:49;;;;;;;;;;;;;;;23.79;65.46;101298.66;4893849;29;20368;-63
2021/09/16 09:04:18;;;;;;;;;;;;;;;23.82;65.77;101314.44;4894652;29;19975;-63
2021/09/16 09:06:44;;;;;;;;;;;;;;;23.85;65.83;101308.75;4897595;29;19927;-63
2021/09/16 09:09:19;;;;;;;;;;;;;;;23.88;65.74;101305.72;4897752;29;19928;-62
2021/09/16 09:11:51;;;;;;;;;;;;;;;23.90;65.76;101310.97;4897643;29;19943;-63
2021/09/16 09:14:19;;;;;;;;;;;;;;;23.90;65.88;101321.69;4897468;29;19923;-62
2021/09/16 09:16:49;;;;;;;;;;;;;;;23.86;65.92;101326.50;4897665;29;20431;-63
2021/09/16 09:19:21;;;;;;;;;;;;;;;23.88;66.03;101310.25;4897726;29;20340;-63
2021/09/16 09:21:49;;;;;;;;;;;;;;;23.94;65.95;101293.56;4897514;29;19923;-62
2021/09/16 09:24:33;;;;;;;;;;;;;;;24.03;66.08;101289.09;4897471;29;19930;-63
2021/09/16 09:27:00;;;;;;;;;;;;;;;24.11;65.85;101286.41;4897809;29;19990;-62
2021/09/16 09:29:27;;;;;;;;;;;;;;;24.17;66.06;101282.25;4897358;29;19931;-63
2021/09/16 09:32:16;;;;;;;;;;;;;;;24.20;66.04;101295.31;4897371;29;20018;-63
2021/09/16 09:34:42;;;;;;;;;;;;;;;24.20;66.04;101298.00;4897499;29;20009;-62
2021/09/16 09:37:12;;;;;;;;;;;;;;;24.17;66.04;101299.16;4897674;29;19927;-63
2021/09/16 09:39:41;;;;;;;;;;;;;;;24.13;66.13;101303.19;4897443;29;19979;-63
2021/09/16 09:42:13;;;;;;;;;;;;;;;24.17;66.10;101298.34;4896912;29;20372;-63
2021/09/16 09:44:40;;;;;;;;;;;;;;;24.22;65.77;101288.78;4897058;29;19935;-62
2021/09/16 09:47:06;;;;;;;;;;;;;;;24.35;65.48;101280.28;4896938;29;19931;-62
2021/09/16 09:49:34;;;;;;;;;;;;;;;24.40;65.17;101272.56;4897186;29;19931;-63
2021/09/16 09:52:01;;;;;;;;;;;;;;;24.50;65.11;101274.28;4896867;29;19977;-63
2021/09/16 09:54:39;;;;;;;;;;;;;;;24.67;64.43;101277.84;4896941;29;20409;-62
2021/09/16 09:57:18;;;;;;;;;;;;;;;24.92;63.38;101279.53;4896752;29;19979;-62
2021/09/16 09:59:57;;;;;;;;;;;;;;;25.15;62.62;101276.13;4897172;29;19923;-63
2021/09/16 10:02:26;;;;;;;;;;;;;;;25.62;61.13;101271.00;4896951;29;19928;-63
2021/09/16 10:04:53;;;;;;;;;;;;;;;25.88;60.23;101265.38;4896774;29;19991;-63
2021/09/16 10:07:30;;;;;;;;;;;;;;;25.75;60.15;101268.63;4902517;29;19971;-62
2021/09/16 10:09:58;;;;;;;;;;;;;;;25.79;59.88;101271.78;4914857;29;19930;-63
2021/09/16 10:12:26;;;;;;;;;;;;;;;25.89;59.59;101267.88;4915188;29;20814;-63
2021/09/16 10:15:04;;;;;;;;;;;;;;;25.96;58.87;101259.13;4914751;29;19927;-63
2021/09/16 10:17:30;;;;;;;;;;;;;;;26.20;57.99;101256.28;4915381;29;19970;-63
2021/09/16 10:19:57;;;;;;;;;;;;;;;26.29;57.42;101249.00;4913694;29;20007;-63
2021/09/16 10:22:24;;;;;;;;;;;;;;;26.08;57.86;101250.50;4915136;29;19923;-63
2021/09/16 10:24:56;;;;;;;;;;;;;;;25.85;58.20;101237.00;4914836;29;19962;-63
2021/09/16 10:27:36;;;;;;;;;;;;;;;25.69;58.19;101235.19;4915350;29;19923;-62
2021/09/16 10:30:22;;;;;;;;;;;;;;;25.64;58.25;101234.06;4915169;29;20402;-62
2021/09/16 10:32:59;;;;;;;;;;;;;;;25.66;58.07;101234.72;4915377;29;19931;-62
2021/09/16 10:35:25;;;;;;;;;;;;;;;25.56;58.20;101234.91;4915052;29;19967;-62
2021/09/16 10:37:52;;;;;;;;;;;;;;;25.61;57.98;101247.84;4915007;29;19945;-63
2021/09/16 10:40:20;;;;;;;;;;;;;;;25.66;58.02;101261.59;4914993;29;19923;-63
2021/09/16 10:42:48;;;;;;;;;;;;;;;25.68;57.67;101259.56;4910119;29;19955;-63
2021/09/16 10:45:24;;;;;;;;;;;;;;;25.69;57.50;101264.78;4914772;29;19927;-63
2021/09/16 10:48:11;;;;;;;;;;;;;;;25.73;57.30;101263.41;4914229;29;20324;-64
2021/09/16 10:50:44;;;;;;;;;;;;;;;25.84;57.06;101258.66;4914980;29;19923;-63
2021/09/16 10:53:31;;;;;;;;;;;;;;;26.10;56.16;101253.00;4914751;29;19946;-65
2021/09/16 10:55:58;;;;;;;;;;;;;;;26.05;56.29;101245.44;4913187;29;20272;-62
2021/09/16 10:58:26;;;;;;;;;;;;;;;25.80;56.55;101247.44;4906836;29;20494;-65
2021/09/16 11:00:53;;;;;;;;;;;;;;;25.65;56.82;101252.69;4901308;29;19987;-62
2021/09/16 11:03:20;;;;;;;;;;;;;;;25.67;56.85;101245.28;4914078;29;20356;-63
2021/09/16 11:05:50;;;;;;;;;;;;;;;25.64;56.69;101239.44;4914808;29;20029;-64
2021/09/16 11:08:17;;;;;;;;;;;;;;;25.59;57.00;101242.63;4914963;29;19929;-68
2021/09/16 11:10:48;;;;;;;;;;;;;;;25.64;57.00;101242.94;4913525;29;19923;-63
2021/09/16 11:13:30;;;;;;;;;;;;;;;25.65;57.16;101236.56;4912207;29;19927;-63
2021/09/16 11:15:57;;;;;;;;;;;;;;;25.63;57.43;101227.84;4907799;29;19953;-62
2021/09/16 11:18:42;;;;;;;;;;;;;;;25.52;57.29;101225.53;4910784;29;19978;-63
2021/09/16 11:21:09;;;;;;;;;;;;;;;25.61;57.32;101232.56;4901289;29;19982;-63
2021/09/16 11:23:38;;;;;;;;;;;;;;;25.64;57.02;101223.31;4913721;29;20372;-62
2021/09/16 11:26:05;;;;;;;;;;;;;;;25.77;56.95;101222.75;4913921;29;19982;-61
2021/09/16 11:28:32;;;;;;;;;;;;;;;25.74;57.06;101227.44;4913628;29;20300;-64
2021/09/16 11:30:59;;;;;;;;;;;;;;;25.71;56.84;101227.81;4914017;29;19948;-63
2021/09/16 11:33:26;;;;;;;;;;;;;;;25.62;57.02;101219.94;4903533;29;19927;-62
2021/09/16 11:35:53;;;;;;;;;;;;;;;25.50;57.28;101223.03;4894940;29;19930;-64
2021/09/16 11:38:20;;;;;;;;;;;;;;;25.42;57.63;101220.38;4911462;29;19923;-65
2021/09/16 11:40:47;;;;;;;;;;;;;;;25.32;57.87;101214.31;4909600;29;19927;-63
2021/09/16 11:43:15;;;;;;;;;;;;;;;25.43;57.56;101213.97;4894682;29;19927;-66
2021/09/16 11:45:45;;;;;;;;;;;;;;;25.38;57.74;101213.66;4894687;29;19927;-63
2021/09/16 11:48:16;;;;;;;;;;;;;;;25.45;57.53;101203.91;4895163;29;19933;-61
2021/09/16 11:50:44;;;;;;;;;;;;;;;25.51;57.34;101202.34;4908365;29;19966;-64
2021/09/16 11:53:11;;;;;;;;;;;;;;;25.36;57.48;101200.41;4913562;29;20415;-64
2021/09/16 11:55:39;;;;;;;;;;;;;;;25.43;57.37;101201.38;4913723;29;19934;-63
2021/09/16 11:58:08;;;;;;;;;;;;;;;25.48;57.10;101195.47;4914012;29;19946;-63
2021/09/16 12:00:35;;;;;;;;;;;;;;;25.49;57.00;101193.63;4905057;29;20443;-63
2021/09/16 12:03:07;;;;;;;;;;;;;;;25.43;57.30;101198.69;4910523;29;19927;-66
2021/09/16 12:05:37;;;;;;;;;;;;;;;25.44;57.21;101196.84;4913108;29;19922;-64
2021/09/16 12:08:04;;;;;;;;;;;;;;;25.52;57.02;101204.03;4908454;29;19930;-64
2021/09/16 12:10:36;;;;;;;;;;;;;;;25.72;56.45;101213.34;4913170;29;19923;-64
2021/09/16 12:13:02;;;;;;;;;;;;;;;25.92;55.73;101215.59;4912837;29;19950;-65
2021/09/16 12:15:33;;;;;;;;;;;;;;;26.20;54.85;101202.50;4912035;29;20425;-63
2021/09/16 12:18:03;;;;;;;;;;;;;;;26.39;54.23;101194.97;4905034;29;19934;-64
2021/09/16 12:20:30;;;;;;;;;;;;;;;27.76;50.41;101183.09;4900149;29;19927;-63
2021/09/16 12:22:56;;;;;;;;;;;;;;;27.43;50.90;101180.00;4894115;29;19930;-64
2021/09/16 12:25:25;;;;;;;;;;;;;;;26.80;52.42;101183.03;4893968;29;19967;-62
2021/09/16 12:28:05;;;;;;;;;;;;;;;26.44;53.32;101178.28;4901439;29;19929;-64
2021/09/16 12:30:36;;;;;;;;;;;;;;;26.13;54.09;101173.81;4911327;29;20478;-63
2021/09/16 12:33:23;;;;;;;;;;;;;;;25.97;54.59;101159.44;4910240;29;19930;-63
2021/09/16 12:36:05;;;;;;;;;;;;;;;25.95;54.59;101153.38;4911180;29;19922;-64
2021/09/16 12:38:39;;;;;;;;;;;;;;;25.99;54.62;101149.34;4911116;29;19923;-64